Time;durP1;ratioP1;P1;durP2;ratioP2;P2;SDS_P1;SDS_P2;PMS_P1;PMS_P2;Temp;Humidity;BMP_temperature;BMP_pressure;BME280_temperature;BME280_humidity;BME280_pressure;Samples;Min_cycle;Max_cycle;Signal;HPM_P1;HPM_P2
2024/01/17 00:01:54;;;;;;;29.33;12.77;;;;;;;;;;7369842;19;20469;-75
2024/01/17 00:04:19;;;;;;;29.65;12.85;;;;;;;;;;7388460;19;20003;-76
2024/01/17 00:06:44;;;;;;;25.85;12.15;;;;;;;;;;7368601;19;19998;-76
2024/01/17 00:09:10;;;;;;;28.50;12.43;;;;;;;;;;7368323;19;20036;-76
2024/01/17 00:11:36;;;;;;;26.80;12.45;;;;;;;;;;7371000;19;20002;-75
2024/01/17 00:14:01;;;;;;;25.17;10.85;;;;;;;;;;7377370;19;20006;-76
2024/01/17 00:16:26;;;;;;;28.83;11.63;;;;;;;;;;7403730;19;20005;-75
2024/01/17 00:18:54;;;;;;;27.63;12.25;;;;;;;;;;7369533;19;20353;-76
2024/01/17 00:21:19;;;;;;;26.67;12.60;;;;;;;;;;7368473;19;20005;-75
2024/01/17 00:23:44;;;;;;;31.67;12.80;;;;;;;;;;7369420;19;20003;-76
2024/01/17 00:26:11;;;;;;;27.58;12.43;;;;;;;;;;7370900;19;20141;-76
2024/01/17 00:28:36;;;;;;;27.88;12.30;;;;;;;;;;7390115;19;20090;-76
2024/01/17 00:31:02;;;;;;;32.42;12.93;;;;;;;;;;7365965;19;20078;-76
2024/01/17 00:33:28;;;;;;;27.98;12.65;;;;;;;;;;7368574;19;20007;-76
2024/01/17 00:35:53;;;;;;;25.05;13.45;;;;;;;;;;7368383;19;20008;-76
2024/01/17 00:38:18;;;;;;;26.40;13.32;;;;;;;;;;7368426;19;20021;-76
2024/01/17 00:40:44;;;;;;;29.02;13.20;;;;;;;;;;7388910;19;20001;-75
2024/01/17 00:43:09;;;;;;;27.52;12.93;;;;;;;;;;7414214;19;19998;-76
2024/01/17 00:45:34;;;;;;;30.73;14.02;;;;;;;;;;7377194;19;20015;-76
2024/01/17 00:48:00;;;;;;;33.40;13.88;;;;;;;;;;7367922;19;20021;-76
2024/01/17 00:50:25;;;;;;;31.60;13.48;;;;;;;;;;7367624;19;20072;-76
2024/01/17 00:52:50;;;;;;;29.17;13.07;;;;;;;;;;7367599;19;20003;-76
2024/01/17 00:55:16;;;;;;;29.60;13.38;;;;;;;;;;7389799;19;20010;-76
2024/01/17 00:57:42;;;;;;;28.40;13.13;;;;;;;;;;7365316;19;20023;-76
2024/01/17 01:00:08;;;;;;;26.80;12.88;;;;;;;;;;7369103;19;20084;-76
2024/01/17 01:02:33;;;;;;;35.42;13.13;;;;;;;;;;7368598;19;20437;-76
2024/01/17 01:04:59;;;;;;;27.35;13.02;;;;;;;;;;7367901;19;20110;-75
2024/01/17 01:07:24;;;;;;;33.22;13.75;;;;;;;;;;7389451;19;20576;-76
2024/01/17 01:09:49;;;;;;;24.13;12.10;;;;;;;;;;7366541;19;20002;-76
2024/01/17 01:12:14;;;;;;;29.98;12.73;;;;;;;;;;7366605;19;20014;-76
2024/01/17 01:14:40;;;;;;;29.73;12.07;;;;;;;;;;7365253;19;20022;-76
2024/01/17 01:17:05;;;;;;;34.55;12.98;;;;;;;;;;7367569;19;20011;-76
2024/01/17 01:19:30;;;;;;;25.67;13.00;;;;;;;;;;7388957;19;19998;-76
2024/01/17 01:21:56;;;;;;;22.10;10.80;;;;;;;;;;7367999;19;20073;-76
2024/01/17 01:24:22;;;;;;;30.52;12.75;;;;;;;;;;7365517;19;20011;-76
2024/01/17 01:26:47;;;;;;;27.75;12.82;;;;;;;;;;7367034;19;20003;-74
2024/01/17 01:29:12;;;;;;;29.83;12.85;;;;;;;;;;7367322;19;20002;-76
2024/01/17 01:31:37;;;;;;;29.98;13.75;;;;;;;;;;7381051;19;20003;-75
2024/01/17 01:34:03;;;;;;;28.73;12.50;;;;;;;;;;7377118;19;20468;-75
2024/01/17 01:36:28;;;;;;;26.60;12.43;;;;;;;;;;7366497;19;20109;-76
2024/01/17 01:38:53;;;;;;;26.58;12.20;;;;;;;;;;7367317;19;20023;-76
2024/01/17 01:41:19;;;;;;;28.00;13.38;;;;;;;;;;7367100;19;20010;-77
2024/01/17 01:43:44;;;;;;;33.40;13.90;;;;;;;;;;7369841;19;20007;-75
2024/01/17 01:46:09;;;;;;;31.23;12.80;;;;;;;;;;7398856;19;20011;-75
2024/01/17 01:48:35;;;;;;;33.60;13.05;;;;;;;;;;7368287;19;20006;-75
2024/01/17 01:51:01;;;;;;;28.27;11.90;;;;;;;;;;7364617;19;20145;-76
2024/01/17 01:53:29;;;;;;;26.15;12.35;;;;;;;;;;7368062;19;20481;-76
2024/01/17 01:55:55;;;;;;;28.80;12.55;;;;;;;;;;7372500;19;20038;-75
2024/01/17 01:58:22;;;;;;;32.72;12.82;;;;;;;;;;7407360;19;19990;-75
2024/01/17 02:00:49;;;;;;;25.35;12.10;;;;;;;;;;7369258;19;20002;-76
2024/01/17 02:03:15;;;;;;;26.88;10.82;;;;;;;;;;7364766;19;20074;-74
2024/01/17 02:05:41;;;;;;;29.25;13.25;;;;;;;;;;7365547;19;20420;-75
2024/01/17 02:08:07;;;;;;;25.85;12.73;;;;;;;;;;7367486;19;20013;-76
2024/01/17 02:10:35;;;;;;;26.75;12.13;;;;;;;;;;7391713;19;20007;-75
2024/01/17 02:13:00;;;;;;;26.65;12.25;;;;;;;;;;7370421;19;20027;-75
2024/01/17 02:15:26;;;;;;;23.98;12.38;;;;;;;;;;7369626;19;20010;-75
2024/01/17 02:17:51;;;;;;;28.25;12.23;;;;;;;;;;7369321;19;20017;-76
2024/01/17 02:20:17;;;;;;;29.17;13.00;;;;;;;;;;7368218;19;20076;-75
2024/01/17 02:22:42;;;;;;;27.80;12.73;;;;;;;;;;7367840;19;20002;-75
2024/01/17 02:25:08;;;;;;;27.23;12.82;;;;;;;;;;7390792;19;19998;-75
2024/01/17 02:27:33;;;;;;;24.83;11.77;;;;;;;;;;7368197;19;20071;-75
2024/01/17 02:29:59;;;;;;;30.73;13.45;;;;;;;;;;7374229;19;20002;-75
2024/01/17 02:32:25;;;;;;;22.65;11.50;;;;;;;;;;7385754;19;19998;-75
2024/01/17 02:34:50;;;;;;;27.35;11.85;;;;;;;;;;7376215;19;20007;-75
2024/01/17 02:37:16;;;;;;;22.90;10.88;;;;;;;;;;7388522;19;20007;-75
2024/01/17 02:39:41;;;;;;;31.55;11.77;;;;;;;;;;7367768;19;20010;-76
2024/01/17 02:42:06;;;;;;;24.50;10.95;;;;;;;;;;7366822;19;20017;-76
2024/01/17 02:44:31;;;;;;;25.30;11.48;;;;;;;;;;7365616;19;20025;-76
2024/01/17 02:46:57;;;;;;;25.40;11.25;;;;;;;;;;7367134;19;20012;-75
2024/01/17 02:49:22;;;;;;;24.30;11.48;;;;;;;;;;7386229;19;20740;-75
2024/01/17 02:51:48;;;;;;;25.77;12.13;;;;;;;;;;7364320;19;20003;-75
2024/01/17 02:54:13;;;;;;;29.52;12.88;;;;;;;;;;7363711;19;20019;-75
2024/01/17 02:56:39;;;;;;;32.75;12.55;;;;;;;;;;7364084;19;20010;-76
2024/01/17 02:59:04;;;;;;;30.05;12.68;;;;;;;;;;7362432;19;20014;-76
2024/01/17 03:01:29;;;;;;;26.95;12.43;;;;;;;;;;7385677;19;20027;-76
2024/01/17 03:03:55;;;;;;;29.10;12.85;;;;;;;;;;7366250;19;20006;-76
2024/01/17 03:06:20;;;;;;;28.63;12.80;;;;;;;;;;7364644;19;20044;-75
2024/01/17 03:08:45;;;;;;;34.53;12.48;;;;;;;;;;7363170;19;20045;-75
2024/01/17 03:11:11;;;;;;;25.05;11.52;;;;;;;;;;7362458;19;20026;-75
2024/01/17 03:13:36;;;;;;;28.20;11.82;;;;;;;;;;7385294;19;20771;-75
2024/01/17 03:16:01;;;;;;;21.05;11.88;;;;;;;;;;7364103;19;20038;-75
2024/01/17 03:18:27;;;;;;;22.00;11.75;;;;;;;;;;7367298;19;20456;-76
2024/01/17 03:20:52;;;;;;;25.95;12.05;;;;;;;;;;7364019;19;20069;-75
2024/01/17 03:23:18;;;;;;;22.58;10.63;;;;;;;;;;7365413;19;20074;-75
2024/01/17 03:25:43;;;;;;;25.65;10.90;;;;;;;;;;7362036;19;20027;-76
2024/01/17 03:28:09;;;;;;;25.80;11.13;;;;;;;;;;7379963;19;20023;-75
2024/01/17 03:30:36;;;;;;;23.23;10.95;;;;;;;;;;7364301;19;20006;-75
2024/01/17 03:33:03;;;;;;;26.60;11.00;;;;;;;;;;7363400;19;20014;-75
2024/01/17 03:35:28;;;;;;;24.48;10.55;;;;;;;;;;7363565;19;20496;-75
2024/01/17 03:37:53;;;;;;;25.48;10.57;;;;;;;;;;7362534;19;20003;-75
2024/01/17 03:40:19;;;;;;;22.13;10.90;;;;;;;;;;7384633;19;20088;-75
2024/01/17 03:42:44;;;;;;;27.13;12.25;;;;;;;;;;7369299;19;20006;-74
2024/01/17 03:45:10;;;;;;;26.48;11.40;;;;;;;;;;7370579;19;20003;-75
2024/01/17 03:47:35;;;;;;;22.80;10.25;;;;;;;;;;7377793;19;20082;-75
2024/01/17 03:50:01;;;;;;;21.63;10.48;;;;;;;;;;7381895;19;20002;-75
2024/01/17 03:52:26;;;;;;;21.98;10.75;;;;;;;;;;7392168;19;20062;-76
2024/01/17 03:54:52;;;;;;;25.38;10.63;;;;;;;;;;7369247;19;20011;-76
2024/01/17 03:57:17;;;;;;;28.70;11.85;;;;;;;;;;7368914;19;20009;-76
2024/01/17 03:59:45;;;;;;;23.15;10.82;;;;;;;;;;7370182;19;20010;-76
2024/01/17 04:02:10;;;;;;;28.42;11.43;;;;;;;;;;7371061;19;20328;-76
2024/01/17 04:04:39;;;;;;;23.80;11.25;;;;;;;;;;7388996;19;19998;-76
2024/01/17 04:07:04;;;;;;;24.67;10.98;;;;;;;;;;7369644;19;20006;-76
2024/01/17 04:09:29;;;;;;;23.20;10.60;;;;;;;;;;7376788;19;20013;-76
2024/01/17 04:11:55;;;;;;;24.40;10.93;;;;;;;;;;7371908;19;20011;-76
2024/01/17 04:14:20;;;;;;;26.88;11.27;;;;;;;;;;7369424;19;20068;-75
2024/01/17 04:16:45;;;;;;;25.42;11.52;;;;;;;;;;7370123;19;19995;-75
2024/01/17 04:19:11;;;;;;;22.40;11.38;;;;;;;;;;7390226;19;20496;-75
2024/01/17 04:21:36;;;;;;;22.92;10.57;;;;;;;;;;7370667;19;20114;-76
2024/01/17 04:24:01;;;;;;;24.50;11.13;;;;;;;;;;7377311;19;20010;-76
2024/01/17 04:26:27;;;;;;;28.83;11.00;;;;;;;;;;7393727;19;20014;-75
2024/01/17 04:28:53;;;;;;;21.67;10.38;;;;;;;;;;7383215;19;19998;-75
2024/01/17 04:31:25;;;;;;;22.63;10.15;;;;;;;;;;7396415;19;19995;-75
2024/01/17 04:33:51;;;;;;;16.42;9.32;;;;;;;;;;7366983;19;20002;-75
2024/01/17 04:36:17;;;;;;;18.63;9.57;;;;;;;;;;7372038;19;20031;-75
2024/01/17 04:38:43;;;;;;;19.08;9.57;;;;;;;;;;7368496;19;20006;-75
2024/01/17 04:41:12;;;;;;;25.17;10.98;;;;;;;;;;7369118;19;20444;-75
2024/01/17 04:43:41;;;;;;;21.75;9.95;;;;;;;;;;7386720;19;19999;-75
2024/01/17 04:46:13;;;;;;;23.85;9.77;;;;;;;;;;7394021;19;20010;-75
2024/01/17 04:48:39;;;;;;;21.55;10.40;;;;;;;;;;7373771;19;20051;-75
2024/01/17 04:51:06;;;;;;;27.08;10.35;;;;;;;;;;7373220;19;20097;-75
2024/01/17 04:53:35;;;;;;;21.80;10.90;;;;;;;;;;7367338;19;20029;-75
2024/01/17 04:56:02;;;;;;;22.60;10.23;;;;;;;;;;7374388;19;20173;-76
2024/01/17 04:58:27;;;;;;;23.73;11.25;;;;;;;;;;7390478;19;20076;-76
2024/01/17 05:00:53;;;;;;;23.75;11.07;;;;;;;;;;7368108;19;20035;-76
2024/01/17 05:03:19;;;;;;;22.00;11.05;;;;;;;;;;7367205;19;20021;-76
2024/01/17 05:05:44;;;;;;;24.23;10.38;;;;;;;;;;7368727;19;20006;-76
2024/01/17 05:08:11;;;;;;;22.95;10.90;;;;;;;;;;7368828;19;20481;-76
2024/01/17 05:10:36;;;;;;;25.20;10.25;;;;;;;;;;7389526;19;20019;-76
2024/01/17 05:13:01;;;;;;;18.33;10.32;;;;;;;;;;7373199;19;20006;-76
2024/01/17 05:15:27;;;;;;;26.20;11.50;;;;;;;;;;7371238;19;20003;-76
2024/01/17 05:17:53;;;;;;;21.27;10.55;;;;;;;;;;7371573;19;20053;-76
2024/01/17 05:20:18;;;;;;;18.30;9.95;;;;;;;;;;7367509;19;20014;-76
2024/01/17 05:22:43;;;;;;;22.85;10.43;;;;;;;;;;7367667;19;20027;-76
2024/01/17 05:25:11;;;;;;;21.58;10.27;;;;;;;;;;7390349;19;20084;-76
2024/01/17 05:27:37;;;;;;;23.23;10.43;;;;;;;;;;7373575;19;20010;-76
2024/01/17 05:30:04;;;;;;;25.13;10.73;;;;;;;;;;7382180;19;20017;-76
2024/01/17 05:32:30;;;;;;;26.48;11.23;;;;;;;;;;7371426;19;20030;-75
2024/01/17 05:34:55;;;;;;;19.67;9.55;;;;;;;;;;7378826;19;20011;-75
2024/01/17 05:37:21;;;;;;;18.80;9.98;;;;;;;;;;7418095;19;20031;-75
2024/01/17 05:39:47;;;;;;;28.15;11.88;;;;;;;;;;7393339;19;20425;-76
2024/01/17 05:42:13;;;;;;;24.88;10.73;;;;;;;;;;7385092;19;20030;-76
2024/01/17 05:44:38;;;;;;;20.60;10.50;;;;;;;;;;7385121;19;20110;-75
2024/01/17 05:47:04;;;;;;;21.58;10.32;;;;;;;;;;7385971;19;20024;-75
2024/01/17 05:49:30;;;;;;;27.50;10.30;;;;;;;;;;7409725;19;20015;-76
2024/01/17 05:51:55;;;;;;;19.83;9.82;;;;;;;;;;7375081;19;20006;-75
2024/01/17 05:54:21;;;;;;;19.48;10.15;;;;;;;;;;7371806;19;20050;-75
2024/01/17 05:56:46;;;;;;;21.13;10.50;;;;;;;;;;7377392;19;20006;-76
2024/01/17 05:59:13;;;;;;;23.73;10.65;;;;;;;;;;7387920;19;20018;-75
2024/01/17 06:01:38;;;;;;;24.70;11.10;;;;;;;;;;7386717;19;20021;-75
2024/01/17 06:04:04;;;;;;;21.88;11.13;;;;;;;;;;7381009;19;20073;-75
2024/01/17 06:06:29;;;;;;;20.35;10.95;;;;;;;;;;7363201;19;19998;-75
2024/01/17 06:08:54;;;;;;;26.45;11.40;;;;;;;;;;7363748;19;20006;-75
2024/01/17 06:11:20;;;;;;;22.60;10.95;;;;;;;;;;7362403;19;19994;-76
2024/01/17 06:13:45;;;;;;;22.77;10.63;;;;;;;;;;7362020;19;20002;-77
2024/01/17 06:16:10;;;;;;;21.25;10.10;;;;;;;;;;7381961;19;20062;-76
2024/01/17 06:18:36;;;;;;;20.63;10.27;;;;;;;;;;7369019;19;20060;-77
2024/01/17 06:21:02;;;;;;;24.77;10.77;;;;;;;;;;7385672;19;20010;-77
2024/01/17 06:23:29;;;;;;;26.02;11.57;;;;;;;;;;7376020;19;20598;-75
2024/01/17 06:25:55;;;;;;;24.90;11.68;;;;;;;;;;7370091;19;20006;-77
2024/01/17 06:28:20;;;;;;;25.63;9.98;;;;;;;;;;7385151;19;20006;-75
2024/01/17 06:30:45;;;;;;;21.85;9.70;;;;;;;;;;7363190;19;20017;-76
2024/01/17 06:33:11;;;;;;;22.90;11.25;;;;;;;;;;7368302;19;20693;-76
2024/01/17 06:35:36;;;;;;;25.92;10.88;;;;;;;;;;7369242;19;20372;-75
2024/01/17 06:38:02;;;;;;;22.50;10.48;;;;;;;;;;7368075;19;20014;-76
2024/01/17 06:40:28;;;;;;;26.67;12.80;;;;;;;;;;7391216;19;20453;-76
2024/01/17 06:42:56;;;;;;;26.48;12.00;;;;;;;;;;7373126;19;20093;-75
2024/01/17 06:45:21;;;;;;;25.33;14.18;;;;;;;;;;7383489;19;20027;-75
2024/01/17 06:47:47;;;;;;;25.58;12.60;;;;;;;;;;7390215;19;20014;-76
2024/01/17 06:50:13;;;;;;;22.10;10.65;;;;;;;;;;7386956;19;20460;-75
2024/01/17 06:52:39;;;;;;;26.00;12.77;;;;;;;;;;7382302;19;20005;-76
2024/01/17 06:55:05;;;;;;;26.08;13.00;;;;;;;;;;7388778;19;19995;-76
2024/01/17 06:57:30;;;;;;;35.40;15.88;;;;;;;;;;7368769;19;20006;-76
2024/01/17 06:59:56;;;;;;;24.85;12.55;;;;;;;;;;7366124;19;20011;-76
2024/01/17 07:02:21;;;;;;;23.58;11.25;;;;;;;;;;7360409;19;20024;-75
2024/01/17 07:04:46;;;;;;;24.38;10.90;;;;;;;;;;7360085;19;20011;-76
2024/01/17 07:07:12;;;;;;;23.23;9.93;;;;;;;;;;7382887;19;20066;-76
2024/01/17 07:09:37;;;;;;;18.77;10.23;;;;;;;;;;7360766;19;20014;-76
2024/01/17 07:12:03;;;;;;;17.77;9.52;;;;;;;;;;7364632;19;20007;-76
2024/01/17 07:14:28;;;;;;;20.10;9.48;;;;;;;;;;7360521;19;20391;-76
2024/01/17 07:16:53;;;;;;;22.27;10.38;;;;;;;;;;7363865;19;20070;-75
2024/01/17 07:19:18;;;;;;;21.25;10.40;;;;;;;;;;7389183;19;20010;-76
2024/01/17 07:21:44;;;;;;;20.13;9.70;;;;;;;;;;7367810;19;20446;-76
2024/01/17 07:24:10;;;;;;;22.58;10.70;;;;;;;;;;7366614;19;20527;-75
2024/01/17 07:26:37;;;;;;;20.67;10.00;;;;;;;;;;7366990;19;20002;-76
2024/01/17 07:29:02;;;;;;;22.15;10.70;;;;;;;;;;7370793;19;20012;-76
2024/01/17 07:31:27;;;;;;;21.58;9.68;;;;;;;;;;7389118;19;19998;-75
2024/01/17 07:33:53;;;;;;;23.77;10.18;;;;;;;;;;7364068;19;20078;-76
2024/01/17 07:36:18;;;;;;;20.50;10.30;;;;;;;;;;7366161;19;20011;-76
2024/01/17 07:38:43;;;;;;;22.02;10.20;;;;;;;;;;7367049;19;20015;-76
2024/01/17 07:41:09;;;;;;;17.77;9.00;;;;;;;;;;7368582;19;20005;-75
2024/01/17 07:43:34;;;;;;;17.30;9.63;;;;;;;;;;7394604;19;19998;-75
2024/01/17 07:46:00;;;;;;;20.55;10.25;;;;;;;;;;7379846;19;20018;-76
2024/01/17 07:48:26;;;;;;;22.17;10.20;;;;;;;;;;7370101;19;20007;-75
2024/01/17 07:50:51;;;;;;;20.25;9.75;;;;;;;;;;7371419;19;20008;-76
2024/01/17 07:53:17;;;;;;;21.17;10.77;;;;;;;;;;7374356;19;20404;-76
2024/01/17 07:55:43;;;;;;;19.17;9.25;;;;;;;;;;7369917;19;20070;-75
2024/01/17 07:58:08;;;;;;;22.02;10.60;;;;;;;;;;7388603;19;20006;-77
2024/01/17 08:00:33;;;;;;;22.77;11.20;;;;;;;;;;7367853;19;20006;-75
2024/01/17 08:02:59;;;;;;;28.35;11.15;;;;;;;;;;7365850;19;20033;-76
2024/01/17 08:05:24;;;;;;;23.50;11.32;;;;;;;;;;7389018;19;20417;-76
2024/01/17 08:07:49;;;;;;;21.88;10.07;;;;;;;;;;7376117;19;20025;-76
2024/01/17 08:10:15;;;;;;;20.83;9.57;;;;;;;;;;7394733;19;19991;-76
2024/01/17 08:12:41;;;;;;;17.98;10.27;;;;;;;;;;7387931;19;19999;-76
2024/01/17 08:15:08;;;;;;;20.13;9.55;;;;;;;;;;7386028;19;20005;-76
2024/01/17 08:17:34;;;;;;;21.00;10.30;;;;;;;;;;7384435;19;20002;-76
2024/01/17 08:19:59;;;;;;;18.95;9.60;;;;;;;;;;7379943;19;20025;-76
2024/01/17 08:22:25;;;;;;;24.58;11.13;;;;;;;;;;7392941;19;19994;-76
2024/01/17 08:24:50;;;;;;;30.08;12.65;;;;;;;;;;7370856;19;20006;-76
2024/01/17 08:27:16;;;;;;;28.75;12.23;;;;;;;;;;7366385;19;20069;-76
2024/01/17 08:29:44;;;;;;;23.42;10.82;;;;;;;;;;7368830;19;20108;-76
2024/01/17 08:32:10;;;;;;;20.85;10.77;;;;;;;;;;7386297;19;20045;-76
2024/01/17 08:34:36;;;;;;;24.17;10.90;;;;;;;;;;7417093;19;19998;-76
2024/01/17 08:37:01;;;;;;;19.08;10.00;;;;;;;;;;7389030;19;20011;-76
2024/01/17 08:39:27;;;;;;;19.13;10.60;;;;;;;;;;7378029;19;20010;-76
2024/01/17 08:41:53;;;;;;;26.02;10.95;;;;;;;;;;7368274;19;20113;-75
2024/01/17 08:44:19;;;;;;;22.45;10.55;;;;;;;;;;7366667;19;20006;-75
2024/01/17 08:46:46;;;;;;;23.83;10.65;;;;;;;;;;7366025;19;20006;-75
2024/01/17 08:49:11;;;;;;;24.02;11.43;;;;;;;;;;7389809;19;20045;-76
2024/01/17 08:51:37;;;;;;;23.05;9.85;;;;;;;;;;7359392;19;20010;-76
2024/01/17 08:54:03;;;;;;;26.00;11.27;;;;;;;;;;7367885;19;20028;-76
2024/01/17 08:56:29;;;;;;;27.40;11.18;;;;;;;;;;7368189;19;20002;-76
2024/01/17 08:58:55;;;;;;;21.85;11.75;;;;;;;;;;7368461;19;20003;-76
2024/01/17 09:01:21;;;;;;;22.95;11.20;;;;;;;;;;7391230;19;20010;-76
2024/01/17 09:03:46;;;;;;;28.45;11.80;;;;;;;;;;7368811;19;20026;-76
2024/01/17 09:06:11;;;;;;;22.35;11.65;;;;;;;;;;7375092;19;19998;-76
2024/01/17 09:08:37;;;;;;;23.42;11.45;;;;;;;;;;7374118;19;20049;-75
2024/01/17 09:11:03;;;;;;;23.50;12.27;;;;;;;;;;7367835;19;20469;-76
2024/01/17 09:13:28;;;;;;;21.02;11.00;;;;;;;;;;7387619;19;20002;-76
2024/01/17 09:15:53;;;;;;;25.73;11.05;;;;;;;;;;7365255;19;20662;-76
2024/01/17 09:18:20;;;;;;;21.25;11.70;;;;;;;;;;7365082;19;20480;-76
2024/01/17 09:20:46;;;;;;;24.98;11.48;;;;;;;;;;7365636;19;19998;-76
2024/01/17 09:23:11;;;;;;;21.88;11.05;;;;;;;;;;7365290;19;20016;-76
2024/01/17 09:25:37;;;;;;;28.70;12.65;;;;;;;;;;7389455;19;20010;-75
2024/01/17 09:28:02;;;;;;;22.23;11.05;;;;;;;;;;7369590;19;19994;-75
2024/01/17 09:30:28;;;;;;;27.05;11.00;;;;;;;;;;7376896;19;20003;-77
2024/01/17 09:32:53;;;;;;;21.13;10.75;;;;;;;;;;7364035;19;20025;-76
2024/01/17 09:35:18;;;;;;;27.48;12.00;;;;;;;;;;7364129;19;20508;-76
2024/01/17 09:37:44;;;;;;;24.13;11.48;;;;;;;;;;7364915;19;20013;-76
2024/01/17 09:40:11;;;;;;;23.30;11.85;;;;;;;;;;7385161;19;20023;-76
2024/01/17 09:42:36;;;;;;;21.13;11.18;;;;;;;;;;7363897;19;20006;-76
2024/01/17 09:45:02;;;;;;;20.35;10.85;;;;;;;;;;7364727;19;19998;-76
2024/01/17 09:47:31;;;;;;;24.88;12.98;;;;;;;;;;7363117;19;19998;-76
2024/01/17 09:49:56;;;;;;;21.58;12.73;;;;;;;;;;7362776;19;19994;-76
2024/01/17 09:52:22;;;;;;;26.67;13.00;;;;;;;;;;7389652;19;20739;-76
2024/01/17 09:54:50;;;;;;;27.15;12.35;;;;;;;;;;7367186;19;20026;-76
2024/01/17 09:57:24;;;;;;;24.73;12.93;;;;;;;;;;7357588;19;20003;-76
2024/01/17 09:59:56;;;;;;;31.63;14.10;;;;;;;;;;7367838;19;20007;-76
2024/01/17 10:02:23;;;;;;;27.83;12.50;;;;;;;;;;7361377;19;20002;-75
2024/01/17 10:04:49;;;;;;;28.27;13.23;;;;;;;;;;7360718;19;20020;-76
2024/01/17 10:07:16;;;;;;;27.08;12.40;;;;;;;;;;7385709;19;20026;-76
2024/01/17 10:09:41;;;;;;;25.38;12.40;;;;;;;;;;7364804;19;19994;-76
2024/01/17 10:12:07;;;;;;;26.60;12.90;;;;;;;;;;7365677;19;19999;-76
2024/01/17 10:14:32;;;;;;;22.58;12.48;;;;;;;;;;7367477;19;20058;-78
2024/01/17 10:16:58;;;;;;;35.20;14.18;;;;;;;;;;7370596;19;19992;-76
2024/01/17 10:19:24;;;;;;;35.45;16.17;;;;;;;;;;7385214;19;20306;-76
2024/01/17 10:21:50;;;;;;;25.27;13.40;;;;;;;;;;7363348;19;20089;-76
2024/01/17 10:24:15;;;;;;;30.77;12.93;;;;;;;;;;7366602;19;20079;-75
2024/01/17 10:26:41;;;;;;;29.63;13.73;;;;;;;;;;7383777;19;20003;-75
2024/01/17 10:29:08;;;;;;;25.42;12.75;;;;;;;;;;7378136;19;20006;-75
2024/01/17 10:31:33;;;;;;;23.35;12.07;;;;;;;;;;7393277;19;20026;-76
2024/01/17 10:33:59;;;;;;;30.63;14.60;;;;;;;;;;7371257;19;20070;-75
2024/01/17 10:36:24;;;;;;;35.17;14.52;;;;;;;;;;7372559;19;20007;-76
2024/01/17 10:38:50;;;;;;;29.35;13.48;;;;;;;;;;7369045;19;20008;-75
2024/01/17 10:41:15;;;;;;;29.83;14.98;;;;;;;;;;7370588;19;20033;-76
2024/01/17 10:43:57;;;;;;;28.05;14.75;;;;;;;;;;7373518;19;20003;-75
2024/01/17 10:46:23;;;;;;;29.00;14.02;;;;;;;;;;7395150;19;20623;-75
2024/01/17 10:48:50;;;;;;;31.20;13.20;;;;;;;;;;7366737;19;20027;-75
2024/01/17 10:51:21;;;;;;;29.83;14.02;;;;;;;;;;7366267;19;20010;-74
2024/01/17 10:53:52;;;;;;;26.65;13.70;;;;;;;;;;7368675;19;20038;-75
2024/01/17 10:56:21;;;;;;;30.13;14.32;;;;;;;;;;7370151;19;20500;-75
2024/01/17 10:58:52;;;;;;;31.92;15.35;;;;;;;;;;7369782;19;20078;-76
2024/01/17 11:01:31;;;;;;;27.23;14.80;;;;;;;;;;7394698;19;20005;-76
2024/01/17 11:04:02;;;;;;;27.92;14.35;;;;;;;;;;7366118;19;20019;-75
2024/01/17 11:06:28;;;;;;;38.13;14.15;;;;;;;;;;7368911;19;20017;-75
2024/01/17 11:08:55;;;;;;;27.13;14.20;;;;;;;;;;7367978;19;20462;-74
2024/01/17 11:11:23;;;;;;;34.22;15.13;;;;;;;;;;7367788;19;20021;-75
2024/01/17 11:13:49;;;;;;;26.98;15.20;;;;;;;;;;7371437;19;20006;-76
2024/01/17 11:16:17;;;;;;;36.65;15.30;;;;;;;;;;7391333;19;20009;-76
2024/01/17 11:18:46;;;;;;;30.50;16.00;;;;;;;;;;7367324;19;20049;-74
2024/01/17 11:21:11;;;;;;;33.80;15.80;;;;;;;;;;7368779;19;20014;-75
2024/01/17 11:23:41;;;;;;;30.42;15.00;;;;;;;;;;7368687;19;20487;-75
2024/01/17 11:26:18;;;;;;;38.27;17.93;;;;;;;;;;7371625;19;20388;-74
2024/01/17 11:28:56;;;;;;;28.73;14.60;;;;;;;;;;7369611;19;20390;-76
2024/01/17 11:31:40;;;;;;;31.40;14.63;;;;;;;;;;7388906;19;20003;-75
2024/01/17 11:34:06;;;;;;;29.92;15.90;;;;;;;;;;7368490;19;20009;-75
2024/01/17 11:36:46;;;;;;;32.20;16.92;;;;;;;;;;7367237;19;20006;-75
2024/01/17 11:39:14;;;;;;;34.08;14.65;;;;;;;;;;7365655;19;20512;-76
2024/01/17 11:41:44;;;;;;;37.42;15.90;;;;;;;;;;7369201;19;20040;-71
2024/01/17 11:44:10;;;;;;;39.65;16.92;;;;;;;;;;7367975;19;20042;-73
2024/01/17 11:46:37;;;;;;;39.53;17.02;;;;;;;;;;7392960;19;20006;-75
2024/01/17 11:49:08;;;;;;;35.47;17.80;;;;;;;;;;7370791;19;20003;-77
2024/01/17 11:51:34;;;;;;;34.10;16.65;;;;;;;;;;7371416;19;20006;-76
2024/01/17 11:54:05;;;;;;;31.83;17.13;;;;;;;;;;7369741;19;20400;-77
2024/01/17 11:56:31;;;;;;;30.20;16.95;;;;;;;;;;7376863;19;20634;-77
2024/01/17 11:59:09;;;;;;;35.00;17.38;;;;;;;;;;7384673;19;20066;-77
2024/01/17 12:01:34;;;;;;;34.47;18.08;;;;;;;;;;7409056;19;20572;-77
2024/01/17 12:03:59;;;;;;;42.35;18.13;;;;;;;;;;7374743;19;20006;-76
2024/01/17 12:06:25;;;;;;;36.25;17.08;;;;;;;;;;7379965;19;20010;-77
2024/01/17 12:08:56;;;;;;;33.13;17.42;;;;;;;;;;7377924;19;20017;-77
2024/01/17 12:11:22;;;;;;;33.35;17.02;;;;;;;;;;7387660;19;20015;-77
2024/01/17 12:13:52;;;;;;;31.08;17.15;;;;;;;;;;7388218;19;20014;-78
2024/01/17 12:16:21;;;;;;;32.17;17.25;;;;;;;;;;7406755;19;20005;-77
2024/01/17 12:18:56;;;;;;;34.13;16.88;;;;;;;;;;7370836;19;20007;-77
2024/01/17 12:21:22;;;;;;;31.55;17.02;;;;;;;;;;7370569;19;20005;-80
2024/01/17 12:23:48;;;;;;;37.50;18.45;;;;;;;;;;7376990;19;20007;-79
2024/01/17 12:26:13;;;;;;;36.33;19.25;;;;;;;;;;7400033;19;20284;-78
2024/01/17 12:28:39;;;;;;;37.78;18.65;;;;;;;;;;7397273;19;20001;-76
2024/01/17 12:31:08;;;;;;;34.50;18.23;;;;;;;;;;7393752;19;20104;-78
2024/01/17 12:33:38;;;;;;;42.40;20.45;;;;;;;;;;7367341;19;20013;-78
2024/01/17 12:36:05;;;;;;;40.72;19.45;;;;;;;;;;7368534;19;20085;-78
2024/01/17 12:38:35;;;;;;;41.80;20.67;;;;;;;;;;7368790;19;20005;-77
2024/01/17 12:41:05;;;;;;;39.75;21.25;;;;;;;;;;7368608;19;20090;-77
2024/01/17 12:43:37;;;;;;;46.58;20.67;;;;;;;;;;7389017;19;20115;-77
2024/01/17 12:46:05;;;;;;;43.42;21.35;;;;;;;;;;7368434;19;20104;-78
2024/01/17 12:48:30;;;;;;;51.25;25.52;;;;;;;;;;7368699;19;20033;-75
2024/01/17 12:50:58;;;;;;;48.03;23.88;;;;;;;;;;7367218;19;20037;-77
2024/01/17 12:53:24;;;;;;;43.90;22.88;;;;;;;;;;7367932;19;20472;-77
2024/01/17 12:55:50;;;;;;;39.47;22.17;;;;;;;;;;7368003;19;20098;-77
2024/01/17 12:58:17;;;;;;;41.70;23.13;;;;;;;;;;7401982;19;20019;-77
2024/01/17 13:00:42;;;;;;;43.20;22.60;;;;;;;;;;7370472;19;19999;-77
2024/01/17 13:03:10;;;;;;;41.63;22.50;;;;;;;;;;7365104;19;20002;-77
2024/01/17 13:05:37;;;;;;;44.45;23.58;;;;;;;;;;7366412;19;20006;-76
2024/01/17 13:08:13;;;;;;;42.30;22.55;;;;;;;;;;7365299;19;20103;-76
2024/01/17 13:10:43;;;;;;;45.40;24.35;;;;;;;;;;7370380;19;20074;-76
2024/01/17 13:13:11;;;;;;;43.33;22.25;;;;;;;;;;7386737;19;20102;-77
2024/01/17 13:15:38;;;;;;;41.45;22.88;;;;;;;;;;7362168;19;20007;-76
2024/01/17 13:18:05;;;;;;;40.92;22.73;;;;;;;;;;7362909;19;20017;-76
2024/01/17 13:20:31;;;;;;;34.90;19.60;;;;;;;;;;7364933;19;20002;-76
2024/01/17 13:22:56;;;;;;;39.45;22.15;;;;;;;;;;7366132;19;20001;-76
2024/01/17 13:25:23;;;;;;;43.35;23.10;;;;;;;;;;7387850;19;20007;-76
2024/01/17 13:28:00;;;;;;;42.53;23.80;;;;;;;;;;7361072;19;20481;-76
2024/01/17 13:30:26;;;;;;;54.15;24.65;;;;;;;;;;7364540;19;20010;-71
2024/01/17 13:32:51;;;;;;;47.25;24.75;;;;;;;;;;7364379;19;20003;-76
2024/01/17 13:35:17;;;;;;;37.97;20.95;;;;;;;;;;7364905;19;20328;-77
2024/01/17 13:37:43;;;;;;;37.03;21.00;;;;;;;;;;7364320;19;20008;-76
2024/01/17 13:40:11;;;;;;;43.90;20.70;;;;;;;;;;7385692;19;20058;-76
2024/01/17 13:42:36;;;;;;;44.00;22.55;;;;;;;;;;7363943;19;20006;-76
2024/01/17 13:45:03;;;;;;;43.47;21.67;;;;;;;;;;7363983;19;20006;-76
2024/01/17 13:47:29;;;;;;;40.15;20.90;;;;;;;;;;7365140;19;20010;-76
2024/01/17 13:49:57;;;;;;;39.92;20.48;;;;;;;;;;7363234;19;20011;-76
2024/01/17 13:52:25;;;;;;;39.55;20.38;;;;;;;;;;7385964;19;19994;-77
2024/01/17 13:54:50;;;;;;;38.10;21.00;;;;;;;;;;7362721;19;20002;-77
2024/01/17 13:57:16;;;;;;;33.15;19.80;;;;;;;;;;7363142;19;20013;-76
2024/01/17 13:59:42;;;;;;;39.15;21.95;;;;;;;;;;7364293;19;20070;-77
2024/01/17 14:02:08;;;;;;;37.53;22.05;;;;;;;;;;7365408;19;20106;-76
2024/01/17 14:04:34;;;;;;;44.28;25.02;;;;;;;;;;7385018;19;19990;-77
2024/01/17 14:06:59;;;;;;;38.95;21.23;;;;;;;;;;7365082;19;20035;-76
2024/01/17 14:09:25;;;;;;;39.30;21.50;;;;;;;;;;7364788;19;20962;-77
2024/01/17 14:11:50;;;;;;;37.30;20.95;;;;;;;;;;7361546;19;20006;-76
2024/01/17 14:14:17;;;;;;;42.72;21.40;;;;;;;;;;7361388;19;20019;-77